Time;durP1;ratioP1;P1;durP2;ratioP2;P2;SDS_P1;SDS_P2;PMS_P1;PMS_P2;Temp;Humidity;BMP_temperature;BMP_pressure;BME280_temperature;BME280_humidity;BME280_pressure;Samples;Min_cycle;Max_cycle;Signal;HPM_P1;HPM_P2
2021/05/09 00:00:34;;;;;;;7.15;5.63;;;12.60;51.60;;;;;;2093976;28;20021;-69
2021/05/09 00:01:34;;;;;;;7.78;5.80;;;12.60;51.70;;;;;;2090327;28;20025;-67
2021/05/09 00:02:35;;;;;;;7.75;5.70;;;12.60;51.40;;;;;;2088700;28;20074;-68
2021/05/09 00:03:36;;;;;;;6.55;5.50;;;12.60;51.50;;;;;;2087818;28;20029;-69
2021/05/09 00:04:36;;;;;;;7.15;5.70;;;12.60;51.50;;;;;;2087929;28;20076;-69
2021/05/09 00:05:37;;;;;;;6.75;5.60;;;12.60;51.60;;;;;;2088569;28;20025;-69
2021/05/09 00:06:38;;;;;;;8.40;5.97;;;12.60;51.30;;;;;;2088437;28;20158;-68
2021/05/09 00:07:38;;;;;;;7.15;5.60;;;12.60;51.60;;;;;;2088564;28;20029;-68
2021/05/09 00:08:39;;;;;;;6.60;5.30;;;12.60;51.70;;;;;;2088377;28;20017;-68
2021/05/09 00:09:39;;;;;;;6.57;5.30;;;12.60;51.70;;;;;;2088270;28;20107;-69
2021/05/09 00:10:41;;;;;;;7.03;5.70;;;12.60;51.60;;;;;;2088680;28;20891;-69
2021/05/09 00:11:42;;;;;;;6.60;4.90;;;12.60;51.80;;;;;;2088496;28;20056;-68
2021/05/09 00:12:42;;;;;;;5.82;4.80;;;12.60;51.90;;;;;;2087761;28;20029;-69
2021/05/09 00:13:43;;;;;;;5.40;4.90;;;12.60;51.80;;;;;;2087779;28;20025;-68
2021/05/09 00:14:44;;;;;;;8.95;5.30;;;12.60;52.00;;;;;;2088426;28;20075;-68
2021/05/09 00:15:47;;;;;;;8.10;5.47;;;12.60;52.10;;;;;;2087799;28;20067;-68
2021/05/09 00:16:47;;;;;;;7.60;5.35;;;12.60;52.00;;;;;;2095711;28;20512;-68
2021/05/09 00:17:48;;;;;;;5.55;4.80;;;12.60;52.00;;;;;;2088260;28;20025;-68
2021/05/09 00:18:48;;;;;;;6.65;5.00;;;12.60;52.00;;;;;;2096028;28;20115;-69
2021/05/09 00:19:49;;;;;;;8.57;6.00;;;12.70;52.00;;;;;;2096468;28;20028;-68
2021/05/09 00:20:49;;;;;;;8.50;5.57;;;12.60;52.00;;;;;;2096636;28;20412;-69
2021/05/09 00:21:50;;;;;;;6.95;5.43;;;12.60;52.00;;;;;;2087753;28;20061;-69
2021/05/09 00:22:51;;;;;;;6.15;5.13;;;12.60;51.70;;;;;;2079633;28;20029;-67
2021/05/09 00:23:51;;;;;;;8.27;5.25;;;12.60;51.70;;;;;;2095982;28;20012;-69
2021/05/09 00:24:52;;;;;;;6.13;5.00;;;12.70;51.80;;;;;;2089681;28;20063;-68
2021/05/09 00:25:52;;;;;;;6.10;5.18;;;12.70;52.10;;;;;;2098424;28;20508;-69
2021/05/09 00:26:53;;;;;;;6.82;5.30;;;12.60;52.10;;;;;;2098603;28;20028;-69
2021/05/09 00:27:54;;;;;;;6.30;5.10;;;12.60;52.00;;;;;;2095961;28;20514;-69
2021/05/09 00:28:54;;;;;;;8.15;5.68;;;12.60;52.00;;;;;;2097687;28;20105;-67
2021/05/09 00:29:55;;;;;;;6.65;5.22;;;12.60;52.50;;;;;;2090696;28;20108;-68
2021/05/09 00:30:55;;;;;;;8.60;5.13;;;12.60;52.40;;;;;;2098401;28;20029;-67
2021/05/09 00:31:56;;;;;;;6.68;5.38;;;12.60;51.80;;;;;;2098497;28;20443;-68
2021/05/09 00:32:57;;;;;;;7.10;5.30;;;12.60;51.50;;;;;;2097809;28;20081;-69
2021/05/09 00:33:57;;;;;;;7.03;5.35;;;12.60;51.60;;;;;;2096805;28;20119;-68
2021/05/09 00:34:58;;;;;;;7.88;5.75;;;12.60;51.70;;;;;;2089278;28;20029;-69
2021/05/09 00:35:58;;;;;;;6.95;5.25;;;12.60;51.70;;;;;;2090546;28;20032;-68
2021/05/09 00:37:00;;;;;;;6.70;5.10;;;12.60;51.80;;;;;;2089279;28;20028;-68
2021/05/09 00:38:00;;;;;;;5.38;4.57;;;12.60;51.70;;;;;;2089576;28;20032;-68
2021/05/09 00:39:01;;;;;;;6.78;5.10;;;12.60;51.80;;;;;;2097934;28;20672;-69
2021/05/09 00:40:03;;;;;;;8.75;5.53;;;12.60;52.10;;;;;;2096664;28;20023;-68
2021/05/09 00:41:04;;;;;;;7.13;5.30;;;12.60;52.30;;;;;;2089996;28;20021;-68
2021/05/09 00:42:06;;;;;;;5.65;5.00;;;12.60;52.10;;;;;;2090094;28;20064;-68
2021/05/09 00:43:07;;;;;;;5.65;4.80;;;12.60;52.30;;;;;;2092329;28;20051;-69
2021/05/09 00:44:08;;;;;;;5.65;4.85;;;12.60;52.50;;;;;;2095844;28;20056;-69
2021/05/09 00:45:09;;;;;;;6.45;4.80;;;12.60;52.70;;;;;;2089373;28;20024;-68
2021/05/09 00:46:10;;;;;;;7.93;5.25;;;12.50;52.70;;;;;;2081165;28;20025;-68
2021/05/09 00:47:12;;;;;;;6.68;5.40;;;12.50;52.90;;;;;;2089448;28;20807;-68
2021/05/09 00:48:13;;;;;;;7.05;5.38;;;12.50;52.80;;;;;;2089727;28;20021;-68
2021/05/09 00:49:14;;;;;;;9.50;5.47;;;12.50;52.80;;;;;;2089749;28;20035;-68
2021/05/09 00:50:15;;;;;;;6.78;5.00;;;12.50;53.10;;;;;;2089381;28;20024;-68
2021/05/09 00:51:16;;;;;;;8.27;5.07;;;12.50;53.10;;;;;;2084523;28;20051;-68
2021/05/09 00:52:18;;;;;;;7.20;5.00;;;12.50;52.90;;;;;;2093822;28;20028;-68
2021/05/09 00:53:23;;;;;;;8.55;5.85;;;12.50;53.00;;;;;;2089221;28;20508;-68
2021/05/09 00:54:25;;;;;;;6.85;5.40;;;12.50;52.30;;;;;;2089340;28;20025;-67
2021/05/09 00:55:29;;;;;;;6.65;5.20;;;12.50;52.20;;;;;;2089122;28;20013;-68
2021/05/09 00:56:31;;;;;;;8.13;5.95;;;12.50;52.30;;;;;;2089205;28;20569;-69
2021/05/09 00:57:34;;;;;;;7.88;5.75;;;12.50;53.10;;;;;;2089844;28;20479;-68
2021/05/09 00:58:36;;;;;;;6.13;5.28;;;12.50;52.90;;;;;;2089131;28;20020;-69
2021/05/09 00:59:39;;;;;;;8.73;5.50;;;12.50;52.80;;;;;;2089024;28;20115;-67
2021/05/09 01:00:40;;;;;;;6.45;4.80;;;12.50;52.70;;;;;;2089256;28;20021;-68
2021/05/09 01:01:43;;;;;;;9.13;6.10;;;12.50;52.70;;;;;;2080843;28;20192;-68
2021/05/09 01:02:45;;;;;;;9.13;6.60;;;12.50;52.70;;;;;;2081368;28;20025;-70
2021/05/09 01:03:47;;;;;;;9.07;6.43;;;12.50;52.60;;;;;;2089071;28;20025;-68
2021/05/09 01:04:48;;;;;;;9.60;7.10;;;12.50;52.80;;;;;;2089812;28;20028;-68
2021/05/09 01:05:49;;;;;;;9.55;5.90;;;12.50;53.10;;;;;;2089848;28;20440;-68
2021/05/09 01:06:50;;;;;;;6.70;5.45;;;12.40;52.90;;;;;;2089060;28;20021;-69
2021/05/09 01:07:54;;;;;;;11.98;10.07;;;12.40;52.90;;;;;;2072866;28;20453;-68
2021/05/09 01:08:54;;;;;;;10.07;8.35;;;12.40;52.70;;;;;;2081060;28;20025;-69
2021/05/09 01:09:55;;;;;;;9.07;7.45;;;12.40;52.90;;;;;;2088880;28;20040;-67
2021/05/09 01:10:56;;;;;;;8.13;6.55;;;12.40;53.10;;;;;;2089834;28;20510;-68
2021/05/09 01:11:56;;;;;;;7.45;6.22;;;12.40;53.40;;;;;;2089784;28;20398;-69
2021/05/09 01:12:57;;;;;;;6.47;5.75;;;12.30;53.40;;;;;;2089782;28;20029;-68
2021/05/09 01:13:58;;;;;;;6.97;5.32;;;12.30;53.50;;;;;;2089040;28;20056;-68
2021/05/09 01:14:59;;;;;;;6.95;5.32;;;12.30;53.50;;;;;;2089291;28;20025;-68
2021/05/09 01:16:00;;;;;;;7.45;5.57;;;12.30;53.80;;;;;;2089777;28;20033;-68
2021/05/09 01:17:02;;;;;;;7.53;5.45;;;12.30;53.70;;;;;;2089743;28;20544;-67
2021/05/09 01:18:03;;;;;;;7.55;5.38;;;12.20;54.20;;;;;;2089080;28;20025;-67
2021/05/09 01:19:04;;;;;;;6.65;4.90;;;12.20;53.70;;;;;;2088881;28;20033;-67
2021/05/09 01:20:13;;;;;;;8.45;5.30;;;12.20;53.60;;;;;;2089789;28;20032;-70
2021/05/09 01:21:14;;;;;;;7.30;5.68;;;12.20;53.50;;;;;;2089783;28;20017;-70
2021/05/09 01:22:15;;;;;;;7.25;5.50;;;12.10;53.60;;;;;;2089273;28;20025;-70
2021/05/09 01:23:16;;;;;;;7.47;5.45;;;12.10;53.80;;;;;;2089312;28;20078;-68
2021/05/09 01:24:17;;;;;;;9.07;5.35;;;12.00;54.00;;;;;;2081195;28;20013;-71
2021/05/09 01:25:17;;;;;;;9.93;6.32;;;12.00;54.00;;;;;;2084790;28;20020;-67
2021/05/09 01:26:18;;;;;;;8.48;5.85;;;12.00;54.00;;;;;;2085359;28;20018;-67
2021/05/09 01:27:19;;;;;;;6.25;5.28;;;12.00;54.10;;;;;;2089310;28;20507;-69
2021/05/09 01:28:20;;;;;;;8.02;5.20;;;11.90;54.10;;;;;;2088865;28;20468;-68
2021/05/09 01:29:20;;;;;;;6.60;5.20;;;11.90;54.20;;;;;;2089690;28;20492;-69
2021/05/09 01:30:22;;;;;;;6.75;4.80;;;11.90;54.40;;;;;;2090138;28;20071;-69
2021/05/09 01:31:22;;;;;;;8.70;6.05;;;11.90;54.50;;;;;;2090442;28;20025;-68
2021/05/09 01:32:23;;;;;;;8.32;5.93;;;11.90;54.50;;;;;;2090109;28;20108;-69
2021/05/09 01:33:24;;;;;;;7.93;5.80;;;11.90;54.40;;;;;;2089706;28;20029;-68
2021/05/09 01:34:32;;;;;;;6.43;5.28;;;11.80;54.60;;;;;;2089710;28;20013;-69
2021/05/09 01:35:34;;;;;;;6.75;5.13;;;11.80;54.70;;;;;;2089850;28;20048;-70
2021/05/09 01:36:35;;;;;;;8.15;6.20;;;11.80;54.70;;;;;;2089361;28;20154;-69
2021/05/09 01:37:36;;;;;;;8.23;5.70;;;11.90;54.60;;;;;;2088837;28;20067;-68
2021/05/09 01:38:36;;;;;;;8.07;5.80;;;11.90;54.50;;;;;;2088820;28;20035;-67
2021/05/09 01:39:37;;;;;;;6.75;5.25;;;11.90;54.80;;;;;;2088737;28;20495;-69
2021/05/09 01:40:38;;;;;;;6.75;5.00;;;11.90;54.80;;;;;;2089050;28;20043;-68
2021/05/09 01:41:39;;;;;;;5.47;4.50;;;11.90;55.00;;;;;;2089011;28;20021;-68
2021/05/09 01:42:40;;;;;;;5.28;4.40;;;11.90;55.10;;;;;;2089055;28;20806;-68
2021/05/09 01:43:41;;;;;;;7.28;5.45;;;11.90;55.10;;;;;;2089482;28;20086;-68
2021/05/09 01:44:55;;;;;;;7.93;5.38;;;12.00;54.80;;;;;;2089559;28;20117;-67
2021/05/09 01:45:57;;;;;;;6.95;4.80;;;12.00;54.60;;;;;;2089038;28;20078;-68
2021/05/09 01:46:58;;;;;;;6.45;4.60;;;12.00;54.70;;;;;;2080705;28;20038;-68
2021/05/09 01:47:59;;;;;;;7.78;5.03;;;12.00;54.60;;;;;;2089005;28;20017;-68
2021/05/09 01:49:00;;;;;;;7.00;4.85;;;12.00;55.00;;;;;;2089401;28;20053;-68
2021/05/09 01:50:00;;;;;;;7.63;5.22;;;12.00;54.90;;;;;;2089262;28;20068;-67
2021/05/09 01:51:02;;;;;;;7.22;4.95;;;12.00;54.40;;;;;;2088919;28;20142;-68
2021/05/09 01:52:03;;;;;;;5.97;4.90;;;12.00;54.30;;;;;;2080716;28;20028;-67
2021/05/09 01:53:04;;;;;;;7.50;4.93;;;12.00;54.60;;;;;;2080634;28;20036;-68
2021/05/09 01:54:06;;;;;;;8.13;5.00;;;12.00;54.70;;;;;;2088827;28;20025;-68
2021/05/09 01:55:09;;;;;;;5.55;4.53;;;11.90;54.70;;;;;;2088850;28;20047;-68
2021/05/09 01:56:12;;;;;;;6.22;4.40;;;11.90;54.70;;;;;;2081205;28;20024;-68
2021/05/09 01:57:14;;;;;;;7.18;4.88;;;11.90;54.70;;;;;;2080791;28;20079;-68
2021/05/09 01:58:18;;;;;;;6.00;4.65;;;11.80;54.70;;;;;;2081067;28;20163;-68
2021/05/09 01:59:41;;;;;;;5.43;4.60;;;11.80;54.90;;;;;;2085849;28;20476;-68
2021/05/09 02:00:42;;;;;;;7.40;4.70;;;11.80;55.10;;;;;;2096289;28;20029;-68
2021/05/09 02:01:51;;;;;;;7.40;4.78;;;11.80;55.20;;;;;;2088823;28;20021;-68
2021/05/09 02:03:06;;;;;;;6.15;4.68;;;11.70;55.40;;;;;;2088828;28;20116;-69
2021/05/09 02:04:08;;;;;;;7.05;4.72;;;11.70;55.70;;;;;;2089195;28;20366;-68
2021/05/09 02:05:11;;;;;;;5.80;4.47;;;11.60;55.60;;;;;;2089250;28;20112;-68
2021/05/09 02:06:12;;;;;;;7.70;5.18;;;11.60;55.70;;;;;;2089259;28;20021;-69
2021/05/09 02:07:13;;;;;;;7.63;5.05;;;11.50;55.80;;;;;;2089276;28;20473;-68
2021/05/09 02:08:18;;;;;;;7.30;5.32;;;11.50;55.80;;;;;;2089149;28;20096;-68
2021/05/09 02:09:25;;;;;;;7.13;5.10;;;11.50;55.80;;;;;;2084651;28;20492;-68
2021/05/09 02:10:27;;;;;;;6.35;5.00;;;11.50;55.50;;;;;;2088422;28;20106;-68
2021/05/09 02:11:28;;;;;;;8.98;5.63;;;11.50;55.50;;;;;;2086141;28;20104;-69
2021/05/09 02:12:35;;;;;;;6.25;5.30;;;11.50;55.60;;;;;;2095176;28;20017;-69
2021/05/09 02:13:44;;;;;;;6.10;5.03;;;11.50;55.50;;;;;;2090233;28;20108;-69
2021/05/09 02:14:53;;;;;;;7.65;5.22;;;11.50;55.70;;;;;;2088507;28;20114;-68
2021/05/09 02:15:55;;;;;;;7.20;5.57;;;11.50;56.00;;;;;;2080463;28;20017;-68
2021/05/09 02:16:55;;;;;;;7.00;5.25;;;11.50;55.80;;;;;;2080212;28;20029;-69
2021/05/09 02:17:56;;;;;;;6.35;4.95;;;11.40;55.80;;;;;;2088597;28;20389;-68
2021/05/09 02:19:01;;;;;;;7.15;5.00;;;11.50;55.90;;;;;;2080716;28;20120;-69
2021/05/09 02:20:13;;;;;;;6.47;5.03;;;11.50;55.90;;;;;;2084510;28;20025;-68
2021/05/09 02:21:13;;;;;;;6.20;4.90;;;11.40;56.10;;;;;;2093751;28;20459;-69
2021/05/09 02:22:15;;;;;;;7.07;4.85;;;11.40;56.10;;;;;;2088579;28;20025;-68
2021/05/09 02:23:16;;;;;;;6.57;5.15;;;11.40;56.30;;;;;;2089136;28;20080;-69
2021/05/09 02:24:18;;;;;;;8.32;4.95;;;11.40;56.20;;;;;;2088441;28;20017;-70
2021/05/09 02:25:20;;;;;;;7.57;5.55;;;11.40;56.00;;;;;;2088591;28;20027;-69
2021/05/09 02:26:22;;;;;;;10.48;5.20;;;11.40;56.00;;;;;;2080765;28;20474;-70
2021/05/09 02:27:23;;;;;;;7.00;5.22;;;11.40;55.90;;;;;;2084452;28;20027;-69
2021/05/09 02:28:23;;;;;;;7.80;5.07;;;11.40;55.80;;;;;;2089702;28;20539;-69
2021/05/09 02:29:25;;;;;;;7.32;5.05;;;11.50;56.00;;;;;;2088921;28;20547;-70
2021/05/09 02:30:26;;;;;;;7.97;5.05;;;11.50;55.90;;;;;;2088507;28;20399;-69
2021/05/09 02:31:28;;;;;;;6.80;5.00;;;11.50;55.90;;;;;;2080437;28;20021;-69
2021/05/09 02:32:28;;;;;;;5.90;4.80;;;11.50;56.00;;;;;;2088579;28;20013;-69
2021/05/09 02:33:29;;;;;;;5.55;4.53;;;11.50;56.30;;;;;;2088962;28;20021;-69
2021/05/09 02:34:34;;;;;;;7.47;4.85;;;11.50;56.20;;;;;;2088515;28;20812;-70
2021/05/09 02:35:35;;;;;;;7.90;4.97;;;11.50;55.80;;;;;;2088610;28;20073;-70
2021/05/09 02:36:36;;;;;;;7.45;5.03;;;11.50;55.60;;;;;;2088553;28;20029;-70
2021/05/09 02:37:37;;;;;;;6.05;4.90;;;11.50;55.80;;;;;;2080320;28;20056;-70
2021/05/09 02:38:37;;;;;;;6.15;4.90;;;11.50;56.00;;;;;;2088560;28;20086;-70
2021/05/09 02:39:38;;;;;;;6.65;4.90;;;11.50;56.20;;;;;;2088397;28;20023;-68
2021/05/09 02:40:39;;;;;;;6.95;4.80;;;11.50;55.70;;;;;;2095118;28;20043;-69
2021/05/09 02:41:41;;;;;;;6.53;4.60;;;11.50;55.80;;;;;;2090843;28;20029;-69
2021/05/09 02:42:47;;;;;;;6.25;4.65;;;11.50;56.10;;;;;;2080311;28;20017;-68
2021/05/09 02:43:49;;;;;;;5.82;4.85;;;11.50;56.00;;;;;;2080829;28;20092;-69
2021/05/09 02:44:50;;;;;;;6.88;4.90;;;11.50;56.10;;;;;;2080324;28;20500;-69
2021/05/09 02:45:52;;;;;;;6.15;4.80;;;11.50;56.20;;;;;;2080337;28;20025;-69
2021/05/09 02:46:52;;;;;;;6.55;4.72;;;11.50;56.10;;;;;;2087987;28;20765;-69
2021/05/09 02:47:53;;;;;;;7.20;4.80;;;11.50;55.70;;;;;;2089114;28;20025;-69
2021/05/09 02:48:56;;;;;;;7.53;5.03;;;11.50;55.70;;;;;;2088207;28;20523;-69
2021/05/09 02:49:59;;;;;;;6.13;4.68;;;11.50;55.80;;;;;;2088218;28;20029;-68
2021/05/09 02:50:59;;;;;;;6.25;4.70;;;11.50;55.80;;;;;;2088976;28;20069;-70
2021/05/09 02:52:00;;;;;;;6.00;4.90;;;11.50;55.80;;;;;;2088309;28;20017;-70
2021/05/09 02:53:01;;;;;;;7.25;5.47;;;11.50;55.80;;;;;;2088467;28;20129;-70
2021/05/09 02:54:03;;;;;;;7.82;4.97;;;11.50;55.80;;;;;;2090331;28;20021;-70
2021/05/09 02:55:06;;;;;;;7.13;5.50;;;11.50;55.80;;;;;;2094984;28;20029;-70
2021/05/09 02:56:07;;;;;;;7.70;5.45;;;11.50;55.80;;;;;;2088447;28;20508;-70
2021/05/09 02:57:07;;;;;;;7.57;5.65;;;11.50;55.90;;;;;;2088374;28;20044;-70
2021/05/09 02:58:08;;;;;;;7.07;5.30;;;11.50;55.70;;;;;;2079253;28;20534;-71
2021/05/09 02:59:10;;;;;;;6.93;5.35;;;11.50;55.80;;;;;;2088016;28;20025;-70
2021/05/09 03:00:13;;;;;;;9.05;5.28;;;11.50;55.80;;;;;;2088459;28;20463;-69
2021/05/09 03:01:15;;;;;;;7.22;5.10;;;11.40;56.20;;;;;;2080246;28;20036;-70
2021/05/09 03:02:16;;;;;;;6.68;5.03;;;11.40;56.30;;;;;;2080060;28;20033;-69
2021/05/09 03:03:17;;;;;;;6.80;4.88;;;11.40;56.00;;;;;;2088273;28;20417;-70
2021/05/09 03:04:18;;;;;;;6.25;5.07;;;11.40;55.90;;;;;;2080286;28;20021;-69
2021/05/09 03:05:19;;;;;;;6.32;4.57;;;11.30;56.00;;;;;;2080404;28;20055;-69
2021/05/09 03:06:20;;;;;;;7.85;5.10;;;11.30;56.00;;;;;;2080216;28;20559;-70
2021/05/09 03:07:21;;;;;;;5.50;4.45;;;11.30;56.20;;;;;;2080247;28;20124;-69
2021/05/09 03:08:22;;;;;;;6.38;4.82;;;11.30;56.10;;;;;;2088265;28;20043;-70
2021/05/09 03:09:25;;;;;;;6.38;5.07;;;11.30;56.30;;;;;;2088040;28;20602;-71
2021/05/09 03:10:25;;;;;;;9.35;5.07;;;11.30;56.20;;;;;;2088937;28;20536;-70
2021/05/09 03:11:28;;;;;;;7.38;5.22;;;11.30;56.20;;;;;;2088780;28;20021;-70
2021/05/09 03:12:32;;;;;;;7.35;4.90;;;11.30;56.30;;;;;;2088209;28;20013;-70
2021/05/09 03:13:36;;;;;;;7.10;5.32;;;11.20;56.30;;;;;;2086510;28;20578;-68
2021/05/09 03:14:36;;;;;;;6.55;5.25;;;11.20;56.80;;;;;;2090388;28;20025;-70
2021/05/09 03:15:37;;;;;;;6.43;4.82;;;11.20;56.80;;;;;;2088671;28;20067;-71
2021/05/09 03:16:38;;;;;;;7.57;5.47;;;11.20;56.70;;;;;;2088745;28;20037;-70
2021/05/09 03:17:38;;;;;;;7.22;5.18;;;11.20;56.70;;;;;;2088810;28;20107;-71
2021/05/09 03:18:39;;;;;;;6.22;5.30;;;11.20;56.50;;;;;;2088570;28;20043;-70
2021/05/09 03:19:39;;;;;;;6.78;5.03;;;11.20;56.70;;;;;;2088427;28;20353;-70
2021/05/09 03:20:40;;;;;;;5.97;4.97;;;11.20;56.60;;;;;;2088700;28;20552;-71
2021/05/09 03:21:42;;;;;;;6.05;4.53;;;11.10;56.90;;;;;;2088699;28;20032;-71
2021/05/09 03:22:42;;;;;;;7.10;4.78;;;11.10;56.80;;;;;;2087996;28;20032;-70
2021/05/09 03:23:43;;;;;;;8.73;5.40;;;11.10;56.90;;;;;;2087931;28;20021;-69
2021/05/09 03:24:43;;;;;;;7.20;5.28;;;11.10;56.80;;;;;;2088650;28;20025;-69
2021/05/09 03:25:45;;;;;;;6.35;5.00;;;11.10;56.70;;;;;;2088568;28;20028;-69
2021/05/09 03:26:45;;;;;;;5.97;5.05;;;11.10;56.80;;;;;;2088687;28;20029;-69
2021/05/09 03:27:46;;;;;;;6.63;4.95;;;11.10;56.70;;;;;;2088593;28;20044;-69
2021/05/09 03:28:46;;;;;;;6.53;4.90;;;11.10;56.90;;;;;;2087678;28;20088;-70
2021/05/09 03:29:47;;;;;;;6.18;4.43;;;11.10;56.90;;;;;;2088450;28;20090;-70
2021/05/09 03:30:47;;;;;;;7.38;5.20;;;11.10;57.00;;;;;;2088722;28;20052;-69
2021/05/09 03:31:48;;;;;;;7.03;4.97;;;11.00;57.20;;;;;;2096266;28;20023;-69
2021/05/09 03:32:49;;;;;;;7.53;5.55;;;11.00;57.40;;;;;;2089217;28;20324;-69
2021/05/09 03:33:49;;;;;;;7.45;5.35;;;11.00;56.80;;;;;;2088396;28;20124;-69
2021/05/09 03:34:50;;;;;;;7.20;5.45;;;11.00;56.80;;;;;;2087980;28;20556;-69
2021/05/09 03:35:50;;;;;;;7.28;5.38;;;11.00;57.10;;;;;;2079729;28;20061;-69
2021/05/09 03:36:51;;;;;;;6.88;5.50;;;11.00;57.20;;;;;;2088055;28;20104;-69
2021/05/09 03:37:52;;;;;;;6.43;5.13;;;11.00;56.90;;;;;;2088509;28;20451;-69
2021/05/09 03:38:52;;;;;;;7.85;5.30;;;11.10;56.90;;;;;;2088461;28;20032;-69
2021/05/09 03:39:53;;;;;;;6.45;5.35;;;11.00;56.80;;;;;;2088379;28;20029;-70
2021/05/09 03:40:53;;;;;;;9.65;5.60;;;11.10;56.80;;;;;;2088524;28;20024;-69
2021/05/09 03:41:54;;;;;;;7.93;5.82;;;11.10;56.90;;;;;;2088675;28;20028;-69
2021/05/09 03:42:55;;;;;;;8.05;5.82;;;11.10;56.60;;;;;;2087995;28;20055;-70
2021/05/09 03:43:55;;;;;;;7.13;5.60;;;11.10;56.70;;;;;;2087906;28;20033;-69
2021/05/09 03:44:56;;;;;;;7.90;5.38;;;11.10;57.00;;;;;;2088729;28;20028;-69
2021/05/09 03:45:57;;;;;;;7.05;5.55;;;11.10;56.60;;;;;;2088676;28;20052;-69
2021/05/09 03:46:57;;;;;;;9.55;5.80;;;11.10;56.90;;;;;;2087924;28;20021;-70
2021/05/09 03:47:58;;;;;;;7.97;5.30;;;11.10;57.00;;;;;;2087969;28;20028;-69
2021/05/09 03:48:58;;;;;;;6.05;5.00;;;11.10;56.80;;;;;;2088617;28;20069;-69
2021/05/09 03:49:59;;;;;;;6.25;5.07;;;11.10;56.90;;;;;;2088380;28;20056;-69
2021/05/09 03:51:00;;;;;;;6.28;4.80;;;11.10;57.00;;;;;;2088713;28;20033;-70
2021/05/09 03:52:00;;;;;;;6.65;5.10;;;11.10;57.20;;;;;;2089677;28;20063;-69
2021/05/09 03:53:01;;;;;;;8.32;5.60;;;11.10;57.20;;;;;;2095812;28;20025;-69
2021/05/09 03:54:02;;;;;;;6.78;5.25;;;11.20;56.80;;;;;;2088711;28;20438;-70
2021/05/09 03:55:03;;;;;;;6.53;4.90;;;11.20;57.00;;;;;;2088162;28;20523;-69
2021/05/09 03:56:03;;;;;;;7.75;5.38;;;11.20;57.00;;;;;;2088046;28;20029;-71
2021/05/09 03:57:04;;;;;;;6.70;5.35;;;11.20;56.90;;;;;;2088615;28;20029;-69
2021/05/09 03:58:05;;;;;;;7.78;5.55;;;11.20;56.90;;;;;;2088277;28;20513;-70
2021/05/09 03:59:05;;;;;;;7.68;5.60;;;11.20;56.70;;;;;;2093962;28;20036;-69
2021/05/09 04:00:06;;;;;;;8.25;5.32;;;11.20;56.60;;;;;;2087605;28;20178;-69
2021/05/09 04:01:14;;;;;;;7.47;5.47;;;11.30;56.40;;;;;;2088027;28;20036;-69
2021/05/09 04:02:15;;;;;;;8.88;5.60;;;11.30;56.30;;;;;;2087826;28;20063;-70
2021/05/09 04:03:27;;;;;;;8.10;5.43;;;11.40;56.10;;;;;;2087859;28;20079;-70
2021/05/09 04:04:27;;;;;;;8.13;5.57;;;11.40;55.80;;;;;;2088562;28;20417;-70
2021/05/09 04:05:28;;;;;;;7.88;5.47;;;11.50;55.90;;;;;;2088321;28;20061;-70
2021/05/09 04:06:29;;;;;;;7.65;5.20;;;11.50;56.10;;;;;;2088461;28;20021;-70
2021/05/09 04:07:30;;;;;;;7.65;5.22;;;11.50;56.00;;;;;;2079490;28;20017;-70
2021/05/09 04:08:30;;;;;;;8.57;5.80;;;11.60;56.10;;;;;;2079564;28;20022;-70
2021/05/09 04:09:31;;;;;;;7.55;5.30;;;11.60;55.60;;;;;;2088240;28;20036;-70
2021/05/09 04:10:32;;;;;;;7.60;5.40;;;11.70;55.70;;;;;;2088504;28;20044;-70
2021/05/09 04:11:33;;;;;;;7.20;5.25;;;11.70;55.70;;;;;;2088458;28;20082;-72
2021/05/09 04:12:34;;;;;;;8.30;5.25;;;11.80;55.60;;;;;;2088495;28;20036;-70
2021/05/09 04:13:48;;;;;;;7.57;5.20;;;11.90;55.50;;;;;;2088441;28;20059;-70
2021/05/09 04:14:49;;;;;;;7.45;5.32;;;12.20;54.80;;;;;;2088471;28;20024;-71
2021/05/09 04:15:50;;;;;;;6.32;5.30;;;12.50;54.10;;;;;;2088415;28;20044;-70
2021/05/09 04:16:51;;;;;;;7.28;5.43;;;12.80;53.30;;;;;;2088530;28;20017;-70
2021/05/09 04:17:52;;;;;;;8.57;5.45;;;13.00;52.70;;;;;;2088775;28;20725;-70
2021/05/09 04:18:52;;;;;;;8.77;5.18;;;13.10;52.00;;;;;;2088435;28;20041;-71
2021/05/09 04:19:53;;;;;;;8.68;5.35;;;13.20;52.10;;;;;;2088293;28;20025;-70
2021/05/09 04:20:53;;;;;;;7.75;5.50;;;13.20;51.40;;;;;;2088429;28;20051;-70
2021/05/09 04:21:54;;;;;;;7.53;5.20;;;13.30;51.10;;;;;;2088545;28;20049;-70
2021/05/09 04:23:10;;;;;;;7.15;5.30;;;13.50;51.20;;;;;;2088648;28;20029;-71
2021/05/09 04:24:11;;;;;;;8.00;5.40;;;13.70;50.60;;;;;;2088367;28;20029;-71
2021/05/09 04:25:12;;;;;;;6.53;5.03;;;14.00;50.00;;;;;;2088484;28;20477;-70
2021/05/09 04:26:12;;;;;;;8.15;5.50;;;14.30;49.60;;;;;;2087645;28;20495;-71
2021/05/09 04:27:13;;;;;;;5.95;4.90;;;14.50;48.50;;;;;;2087895;28;20033;-71
2021/05/09 04:28:17;;;;;;;6.18;5.10;;;14.80;48.40;;;;;;2088988;28;20735;-70
2021/05/09 04:29:18;;;;;;;7.90;5.10;;;15.00;47.90;;;;;;2093936;28;20036;-71
2021/05/09 04:30:19;;;;;;;6.57;4.95;;;15.30;47.40;;;;;;2088595;28;20052;-71
2021/05/09 04:31:20;;;;;;;7.10;5.28;;;15.50;46.50;;;;;;2088495;28;20021;-70
2021/05/09 04:32:21;;;;;;;6.18;5.00;;;15.50;45.90;;;;;;2087665;28;20032;-71
2021/05/09 04:33:28;;;;;;;6.55;5.20;;;15.50;45.70;;;;;;2087650;28;20052;-71
2021/05/09 04:34:28;;;;;;;7.40;5.38;;;15.40;45.80;;;;;;2088404;28;20553;-71
2021/05/09 04:35:30;;;;;;;9.25;5.60;;;15.10;46.30;;;;;;2087810;28;20115;-71
2021/05/09 04:36:30;;;;;;;8.27;4.82;;;14.80;46.80;;;;;;2079511;28;20071;-70
2021/05/09 04:37:31;;;;;;;8.25;6.63;;;14.60;47.50;;;;;;2087852;28;20455;-70
2021/05/09 04:38:32;;;;;;;7.88;6.25;;;14.30;48.20;;;;;;2087730;28;20029;-70
2021/05/09 04:39:32;;;;;;;8.35;6.85;;;14.20;48.70;;;;;;2087500;28;20099;-70
2021/05/09 04:40:33;;;;;;;11.25;8.15;;;14.10;49.10;;;;;;2088522;28;20106;-70
2021/05/09 04:41:34;;;;;;;11.13;9.55;;;13.90;49.30;;;;;;2088518;28;20021;-70
2021/05/09 04:42:34;;;;;;;28.38;21.35;;;13.80;49.70;;;;;;2088606;28;20025;-70
2021/05/09 04:43:36;;;;;;;46.75;33.30;;;13.70;49.90;;;;;;2088216;28;20083;-70
2021/05/09 04:44:36;;;;;;;26.83;19.00;;;13.70;49.90;;;;;;2087817;28;20079;-71
2021/05/09 04:45:38;;;;;;;14.10;9.80;;;13.70;49.70;;;;;;2087759;28;20092;-70
2021/05/09 04:46:38;;;;;;;17.33;12.05;;;13.70;49.80;;;;;;2087725;28;20478;-71
2021/05/09 04:47:39;;;;;;;20.75;13.45;;;13.90;50.00;;;;;;2087790;28;20025;-70
2021/05/09 04:48:40;;;;;;;19.70;14.30;;;14.00;49.50;;;;;;2088332;28;20090;-70
2021/05/09 04:49:40;;;;;;;21.35;14.02;;;14.20;49.00;;;;;;2088154;28;20025;-71
2021/05/09 04:50:41;;;;;;;20.25;14.88;;;14.30;49.00;;;;;;2088338;28;20503;-70
2021/05/09 04:51:42;;;;;;;13.93;10.23;;;14.30;48.90;;;;;;2088327;28;20056;-71
2021/05/09 04:52:42;;;;;;;14.60;11.70;;;14.50;48.50;;;;;;2088627;28;20020;-71
2021/05/09 04:53:43;;;;;;;12.95;10.88;;;14.70;48.40;;;;;;2088392;28;20028;-70
2021/05/09 04:54:43;;;;;;;20.92;14.63;;;14.90;48.20;;;;;;2088399;28;20036;-70
2021/05/09 04:55:44;;;;;;;9.52;7.32;;;15.10;47.40;;;;;;2088427;28;20052;-70
2021/05/09 04:56:45;;;;;;;14.32;11.07;;;15.00;47.20;;;;;;2088282;28;20033;-70
2021/05/09 04:57:45;;;;;;;15.85;11.63;;;15.00;46.60;;;;;;2088419;28;20112;-70
2021/05/09 04:58:46;;;;;;;27.30;19.52;;;15.10;46.60;;;;;;2086682;28;20021;-71
2021/05/09 04:59:46;;;;;;;23.60;18.15;;;15.20;46.60;;;;;;2087563;28;20037;-71
2021/05/09 05:00:52;;;;;;;22.95;17.48;;;15.30;46.40;;;;;;2087899;28;20053;-70
2021/05/09 05:01:53;;;;;;;9.23;7.28;;;15.30;46.50;;;;;;2095986;28;20434;-71
2021/05/09 05:02:54;;;;;;;12.88;8.82;;;15.20;46.30;;;;;;2089062;28;20104;-70
2021/05/09 05:03:54;;;;;;;10.75;8.10;;;15.00;46.80;;;;;;2088285;28;20553;-70
2021/05/09 05:04:55;;;;;;;15.23;10.65;;;14.90;47.00;;;;;;2088587;28;20044;-71
2021/05/09 05:05:56;;;;;;;13.52;10.05;;;14.70;47.70;;;;;;2088420;28;20027;-71
2021/05/09 05:06:57;;;;;;;9.73;8.25;;;14.60;47.90;;;;;;2088478;28;20079;-71
2021/05/09 05:07:57;;;;;;;10.57;8.73;;;14.50;48.10;;;;;;2088445;28;20048;-70
2021/05/09 05:08:58;;;;;;;10.05;8.77;;;14.40;48.60;;;;;;2088280;28;20496;-71
2021/05/09 05:09:58;;;;;;;9.30;6.65;;;14.30;48.80;;;;;;2088639;28;20025;-70
2021/05/09 05:11:00;;;;;;;8.82;6.55;;;14.20;48.70;;;;;;2089853;28;20480;-71
2021/05/09 05:12:01;;;;;;;8.50;6.70;;;14.10;49.20;;;;;;2090001;28;20033;-69
2021/05/09 05:13:01;;;;;;;8.73;6.70;;;14.00;49.90;;;;;;2089977;28;20027;-71
2021/05/09 05:14:02;;;;;;;9.45;6.80;;;14.00;49.90;;;;;;2089932;28;20389;-70
2021/05/09 05:15:03;;;;;;;9.02;7.20;;;14.10;50.10;;;;;;2090072;28;20067;-69
2021/05/09 05:16:06;;;;;;;8.00;6.47;;;14.10;49.70;;;;;;2089718;28;20052;-70
2021/05/09 05:17:07;;;;;;;11.32;7.05;;;14.10;49.70;;;;;;2089110;28;20053;-70
2021/05/09 05:18:07;;;;;;;7.95;6.07;;;14.10;49.80;;;;;;2089196;28;20029;-70
2021/05/09 05:19:08;;;;;;;8.27;6.28;;;14.10;49.90;;;;;;2089763;28;20042;-70
2021/05/09 05:20:11;;;;;;;8.95;6.72;;;14.20;49.80;;;;;;2089474;28;20493;-69